Time;durP1;ratioP1;P1;durP2;ratioP2;P2;SDS_P1;SDS_P2;PMS_P1;PMS_P2;Temp;Humidity;BMP_temperature;BMP_pressure;BME280_temperature;BME280_humidity;BME280_pressure;Samples;Min_cycle;Max_cycle;Signal;HPM_P1;HPM_P2
2023/06/13 00:01:48;;;;;;;5.17;4.23;;;;;;;;;;4933810;29;20205;-74
2023/06/13 00:04:21;;;;;;;5.53;4.53;;;;;;;;;;4927877;29;20191;-74
2023/06/13 00:06:47;;;;;;;4.83;4.43;;;;;;;;;;4915233;29;20186;-74
2023/06/13 00:09:15;;;;;;;5.10;4.60;;;;;;;;;;4914897;29;20246;-74
2023/06/13 00:11:41;;;;;;;4.70;4.30;;;;;;;;;;4914723;29;20209;-74
2023/06/13 00:14:10;;;;;;;4.60;4.20;;;;;;;;;;4914483;29;20190;-74
2023/06/13 00:16:38;;;;;;;6.13;4.30;;;;;;;;;;4921798;29;20201;-74
2023/06/13 00:19:05;;;;;;;4.93;4.23;;;;;;;;;;4933866;29;20178;-74
2023/06/13 00:21:35;;;;;;;6.83;4.57;;;;;;;;;;4932415;29;20198;-74
2023/06/13 00:24:02;;;;;;;5.33;4.57;;;;;;;;;;4933402;29;20171;-74
2023/06/13 00:26:28;;;;;;;5.87;4.30;;;;;;;;;;4933882;29;20529;-74
2023/06/13 00:28:54;;;;;;;4.70;4.30;;;;;;;;;;4932443;29;20201;-74
2023/06/13 00:31:21;;;;;;;4.70;3.97;;;;;;;;;;4933400;29;20225;-74
2023/06/13 00:33:50;;;;;;;7.47;4.73;;;;;;;;;;4932129;29;20673;-74
2023/06/13 00:36:20;;;;;;;5.77;4.50;;;;;;;;;;4932198;29;20292;-74
2023/06/13 00:38:49;;;;;;;4.37;3.97;;;;;;;;;;4933614;29;20253;-74
2023/06/13 00:41:15;;;;;;;4.70;4.30;;;;;;;;;;4932187;29;20233;-74
2023/06/13 00:43:42;;;;;;;4.40;4.00;;;;;;;;;;4932898;29;20631;-74
2023/06/13 00:46:08;;;;;;;5.00;4.03;;;;;;;;;;4919742;29;20860;-74
2023/06/13 00:48:35;;;;;;;4.60;4.20;;;;;;;;;;4914669;29;20682;-74
2023/06/13 00:51:02;;;;;;;4.93;4.40;;;;;;;;;;4914366;29;20285;-74
2023/06/13 00:53:31;;;;;;;5.70;4.30;;;;;;;;;;4923982;29;20205;-74
2023/06/13 00:55:59;;;;;;;5.30;3.97;;;;;;;;;;4931813;29;20252;-74
2023/06/13 00:58:26;;;;;;;4.43;3.80;;;;;;;;;;4916471;29;20726;-74
2023/06/13 01:00:53;;;;;;;6.10;3.93;;;;;;;;;;4914191;29;20242;-74
2023/06/13 01:03:19;;;;;;;5.47;3.87;;;;;;;;;;4916618;29;20201;-74
2023/06/13 01:05:46;;;;;;;4.33;3.60;;;;;;;;;;4922085;29;20182;-74
2023/06/13 01:08:21;;;;;;;5.53;3.90;;;;;;;;;;4915512;29;20194;-74
2023/06/13 01:10:52;;;;;;;4.23;3.73;;;;;;;;;;4923444;29;20202;-74
2023/06/13 01:13:33;;;;;;;4.37;4.00;;;;;;;;;;4928328;29;20309;-74
2023/06/13 01:16:08;;;;;;;4.23;3.77;;;;;;;;;;4934169;29;20220;-74
2023/06/13 01:18:35;;;;;;;4.03;3.57;;;;;;;;;;4935770;29;20221;-74
2023/06/13 01:21:02;;;;;;;4.33;3.70;;;;;;;;;;4919914;29;20275;-74
2023/06/13 01:23:57;;;;;;;4.23;3.83;;;;;;;;;;4936430;29;20198;-74
2023/06/13 01:26:50;;;;;;;4.70;3.87;;;;;;;;;;4924203;29;20217;-74
2023/06/13 01:29:17;;;;;;;4.60;3.60;;;;;;;;;;4929174;29;20191;-74
2023/06/13 01:31:45;;;;;;;4.10;3.60;;;;;;;;;;4916405;29;20258;-74
2023/06/13 01:34:12;;;;;;;4.53;4.10;;;;;;;;;;4917326;29;20585;-74
2023/06/13 01:36:39;;;;;;;4.47;3.90;;;;;;;;;;4916416;29;20214;-74
2023/06/13 01:39:05;;;;;;;4.23;3.83;;;;;;;;;;4917380;29;20192;-73
2023/06/13 01:41:31;;;;;;;6.67;3.73;;;;;;;;;;4916554;29;20194;-74
2023/06/13 01:43:58;;;;;;;5.40;4.00;;;;;;;;;;4915882;29;20236;-74
2023/06/13 01:46:28;;;;;;;5.83;3.90;;;;;;;;;;4916376;29;20186;-74
2023/06/13 01:49:13;;;;;;;6.90;4.10;;;;;;;;;;4916338;29;20191;-74
2023/06/13 01:51:45;;;;;;;7.97;3.90;;;;;;;;;;4917453;29;20221;-74
2023/06/13 01:54:14;;;;;;;4.50;3.80;;;;;;;;;;4926982;29;20230;-74
2023/06/13 01:56:42;;;;;;;4.20;3.77;;;;;;;;;;4925056;29;20284;-74
2023/06/13 01:59:08;;;;;;;5.33;3.77;;;;;;;;;;4919062;29;20198;-74
2023/06/13 02:01:38;;;;;;;5.00;3.80;;;;;;;;;;4925169;29;20329;-74
2023/06/13 02:04:04;;;;;;;4.20;3.70;;;;;;;;;;4915745;29;20197;-74
2023/06/13 02:06:32;;;;;;;5.07;4.20;;;;;;;;;;4933621;29;20196;-74
2023/06/13 02:08:58;;;;;;;6.53;3.80;;;;;;;;;;4934602;29;20608;-74
2023/06/13 02:11:25;;;;;;;4.50;4.03;;;;;;;;;;4932984;29;20206;-75
2023/06/13 02:13:53;;;;;;;4.97;4.00;;;;;;;;;;4934400;29;20201;-75
2023/06/13 02:16:25;;;;;;;4.97;4.10;;;;;;;;;;4934476;29;20300;-75
2023/06/13 02:18:51;;;;;;;4.70;3.90;;;;;;;;;;4925057;29;20183;-75
2023/06/13 02:21:18;;;;;;;5.17;3.70;;;;;;;;;;4916069;29;20235;-75
2023/06/13 02:23:44;;;;;;;6.13;3.70;;;;;;;;;;4916558;29;20190;-75
2023/06/13 02:26:11;;;;;;;4.93;4.30;;;;;;;;;;4932026;29;20186;-75
2023/06/13 02:28:37;;;;;;;5.77;3.53;;;;;;;;;;4922322;29;20186;-75
2023/06/13 02:31:07;;;;;;;6.93;4.00;;;;;;;;;;4933724;29;20702;-75
2023/06/13 02:33:33;;;;;;;6.03;4.13;;;;;;;;;;4934093;29;20190;-75
2023/06/13 02:35:59;;;;;;;5.17;3.93;;;;;;;;;;4919019;29;20281;-75
2023/06/13 02:38:26;;;;;;;4.13;3.73;;;;;;;;;;4933805;29;20186;-74
2023/06/13 02:40:53;;;;;;;4.30;3.90;;;;;;;;;;4928327;29;20294;-74
2023/06/13 02:43:19;;;;;;;4.97;3.93;;;;;;;;;;4920616;29;20643;-74
2023/06/13 02:45:45;;;;;;;4.60;4.03;;;;;;;;;;4926723;29;20577;-74
2023/06/13 02:48:12;;;;;;;4.03;3.70;;;;;;;;;;4921371;29;20218;-74
2023/06/13 02:50:38;;;;;;;6.10;4.13;;;;;;;;;;4931860;29;20656;-74
2023/06/13 02:53:04;;;;;;;4.67;4.10;;;;;;;;;;4919580;29;20241;-74
2023/06/13 02:55:30;;;;;;;5.43;4.00;;;;;;;;;;4926985;29;20483;-74
2023/06/13 02:57:57;;;;;;;5.47;4.20;;;;;;;;;;4915159;29;20769;-74
2023/06/13 03:00:23;;;;;;;4.73;4.20;;;;;;;;;;4914237;29;20679;-74
2023/06/13 03:03:02;;;;;;;5.65;4.30;;;;;;;;;;4918057;29;20444;-74
2023/06/13 03:05:30;;;;;;;4.40;4.00;;;;;;;;;;4921932;29;20191;-74
2023/06/13 03:07:58;;;;;;;4.57;4.13;;;;;;;;;;4920612;29;20188;-74
2023/06/13 03:10:25;;;;;;;5.33;4.40;;;;;;;;;;4905640;29;20233;-74
2023/06/13 03:12:52;;;;;;;7.47;4.47;;;;;;;;;;4919581;29;20206;-74
2023/06/13 03:15:18;;;;;;;5.33;4.20;;;;;;;;;;4924790;29;20234;-74
2023/06/13 03:17:46;;;;;;;6.03;4.33;;;;;;;;;;4919763;29;20210;-74
2023/06/13 03:20:12;;;;;;;5.07;4.33;;;;;;;;;;4920324;29;20245;-74
2023/06/13 03:22:39;;;;;;;5.40;4.60;;;;;;;;;;4907205;29;20221;-74
2023/06/13 03:25:05;;;;;;;5.70;4.10;;;;;;;;;;4920714;29;20348;-74
2023/06/13 03:27:36;;;;;;;5.83;4.30;;;;;;;;;;4907796;29;20190;-74
2023/06/13 03:30:02;;;;;;;5.10;4.60;;;;;;;;;;4921444;29;20236;-75
2023/06/13 03:32:30;;;;;;;5.60;4.53;;;;;;;;;;4903648;29;20216;-74
2023/06/13 03:34:57;;;;;;;5.17;4.27;;;;;;;;;;4927685;29;20219;-74
2023/06/13 03:37:23;;;;;;;8.20;4.50;;;;;;;;;;4922890;29;20213;-74
2023/06/13 03:39:49;;;;;;;7.43;4.70;;;;;;;;;;4919762;29;20186;-74
2023/06/13 03:42:16;;;;;;;5.30;4.80;;;;;;;;;;4920389;29;20703;-74
2023/06/13 03:44:46;;;;;;;5.33;4.70;;;;;;;;;;4904321;29;20592;-73
2023/06/13 03:47:13;;;;;;;6.03;4.30;;;;;;;;;;4932849;29;20182;-74
2023/06/13 03:49:39;;;;;;;5.20;4.70;;;;;;;;;;4919510;29;20201;-74
2023/06/13 03:52:06;;;;;;;6.00;4.50;;;;;;;;;;4916000;29;20576;-74
2023/06/13 03:54:32;;;;;;;10.27;4.60;;;;;;;;;;4927118;29;20193;-74
2023/06/13 03:56:58;;;;;;;4.73;4.13;;;;;;;;;;4932950;29;20201;-74
2023/06/13 03:59:24;;;;;;;5.40;4.43;;;;;;;;;;4922763;29;20621;-74
2023/06/13 04:01:51;;;;;;;6.30;4.90;;;;;;;;;;4928926;29;20194;-74
2023/06/13 04:04:18;;;;;;;7.20;4.50;;;;;;;;;;4922920;29;20201;-74
2023/06/13 04:06:47;;;;;;;6.10;4.60;;;;;;;;;;4923159;29;20688;-74
2023/06/13 04:09:16;;;;;;;5.97;4.73;;;;;;;;;;4935712;29;20211;-74
2023/06/13 04:11:42;;;;;;;5.27;4.63;;;;;;;;;;4922590;29;20212;-74
2023/06/13 04:14:08;;;;;;;5.83;4.80;;;;;;;;;;4921146;29;20198;-74
2023/06/13 04:16:35;;;;;;;5.23;4.73;;;;;;;;;;4919259;29;20214;-74
2023/06/13 04:19:01;;;;;;;5.07;4.57;;;;;;;;;;4917957;29;20182;-74
2023/06/13 04:21:28;;;;;;;7.17;4.47;;;;;;;;;;4906541;29;20218;-74
2023/06/13 04:23:54;;;;;;;6.43;4.53;;;;;;;;;;4916806;29;20189;-74
2023/06/13 04:26:21;;;;;;;5.20;4.50;;;;;;;;;;4904859;29;20193;-73
2023/06/13 04:28:48;;;;;;;7.57;4.90;;;;;;;;;;4920851;29;20206;-74
2023/06/13 04:31:15;;;;;;;5.00;4.50;;;;;;;;;;4916134;29;20218;-74
2023/06/13 04:33:44;;;;;;;5.73;4.50;;;;;;;;;;4919552;29;20702;-74
2023/06/13 04:36:13;;;;;;;6.10;4.23;;;;;;;;;;4919997;29;20690;-74
2023/06/13 04:38:39;;;;;;;4.47;4.07;;;;;;;;;;4920580;29;20563;-74
2023/06/13 04:41:09;;;;;;;7.17;4.83;;;;;;;;;;4925072;29;20248;-74
2023/06/13 04:43:36;;;;;;;4.97;4.40;;;;;;;;;;4926354;29;20901;-74
2023/06/13 04:46:02;;;;;;;7.00;4.70;;;;;;;;;;4920038;29;20179;-74
2023/06/13 04:48:30;;;;;;;6.70;4.70;;;;;;;;;;4919206;29;20195;-74
2023/06/13 04:50:58;;;;;;;5.17;4.50;;;;;;;;;;4920396;29;20240;-74
2023/06/13 04:53:26;;;;;;;8.93;4.53;;;;;;;;;;4925199;29;21741;-74
2023/06/13 04:55:52;;;;;;;5.13;4.57;;;;;;;;;;4925368;29;20257;-74
2023/06/13 04:58:18;;;;;;;6.07;5.00;;;;;;;;;;4924915;29;20968;-74
2023/06/13 05:00:48;;;;;;;6.27;4.63;;;;;;;;;;4924026;29;20269;-74
2023/06/13 05:03:18;;;;;;;5.00;3.70;;;;;;;;;;4921193;29;20269;-74
2023/06/13 05:05:44;;;;;;;8.33;4.50;;;;;;;;;;4925714;29;20643;-73
2023/06/13 05:08:13;;;;;;;5.63;4.67;;;;;;;;;;4925085;29;20201;-74
2023/06/13 05:10:41;;;;;;;5.47;4.50;;;;;;;;;;4925883;29;20245;-73
2023/06/13 05:13:08;;;;;;;6.53;4.27;;;;;;;;;;4929780;29;20721;-74
2023/06/13 05:15:34;;;;;;;8.53;4.53;;;;;;;;;;4923536;29;20177;-74
2023/06/13 05:18:00;;;;;;;5.30;4.77;;;;;;;;;;4922233;29;20214;-74
2023/06/13 05:20:27;;;;;;;5.13;4.13;;;;;;;;;;4922976;29;20265;-74
2023/06/13 05:22:53;;;;;;;4.73;4.30;;;;;;;;;;4917822;29;20203;-74
2023/06/13 05:25:20;;;;;;;6.13;4.47;;;;;;;;;;4933776;29;20193;-74
2023/06/13 05:27:49;;;;;;;4.60;4.20;;;;;;;;;;4931502;29;20198;-74
2023/06/13 05:30:16;;;;;;;6.00;3.97;;;;;;;;;;4930810;29;20196;-73
2023/06/13 05:32:42;;;;;;;8.57;4.10;;;;;;;;;;4932407;29;20997;-74
2023/06/13 05:35:08;;;;;;;6.43;4.30;;;;;;;;;;4918860;29;20187;-74
2023/06/13 05:37:38;;;;;;;4.63;4.17;;;;;;;;;;4920138;29;20217;-74
2023/06/13 05:40:05;;;;;;;4.23;3.83;;;;;;;;;;4923618;29;20186;-74
2023/06/13 05:42:34;;;;;;;5.60;3.87;;;;;;;;;;4924328;29;20210;-74
2023/06/13 05:45:01;;;;;;;3.80;3.50;;;;;;;;;;4919143;29;20174;-74
2023/06/13 05:47:27;;;;;;;4.20;3.70;;;;;;;;;;4928109;29;20186;-74
2023/06/13 05:49:53;;;;;;;4.70;3.80;;;;;;;;;;4936446;29;20186;-77
2023/06/13 05:52:19;;;;;;;4.67;4.00;;;;;;;;;;4936746;29;20268;-75
2023/06/13 05:54:46;;;;;;;4.10;3.70;;;;;;;;;;4936628;29;20246;-79
2023/06/13 05:57:13;;;;;;;3.97;3.67;;;;;;;;;;4936923;29;20245;-75
2023/06/13 05:59:39;;;;;;;4.83;4.10;;;;;;;;;;4937937;29;20186;-80
2023/06/13 06:02:05;;;;;;;6.77;3.70;;;;;;;;;;4909510;29;20213;-79
2023/06/13 06:04:31;;;;;;;5.83;3.93;;;;;;;;;;4935546;29;20178;-79
2023/06/13 06:06:58;;;;;;;6.40;3.80;;;;;;;;;;4934812;29;20245;-79
2023/06/13 06:09:24;;;;;;;5.10;3.87;;;;;;;;;;4935900;29;20561;-79
2023/06/13 06:11:53;;;;;;;4.90;4.23;;;;;;;;;;4934000;29;20210;-77
2023/06/13 06:14:19;;;;;;;8.33;4.00;;;;;;;;;;4914117;29;20196;-80
2023/06/13 06:16:45;;;;;;;7.57;4.00;;;;;;;;;;4932761;29;20301;-80
2023/06/13 06:19:11;;;;;;;4.23;3.67;;;;;;;;;;4934145;29;20177;-80
2023/06/13 06:21:38;;;;;;;4.13;3.50;;;;;;;;;;4913181;29;20205;-80
2023/06/13 06:24:04;;;;;;;4.83;3.90;;;;;;;;;;4935223;29;20185;-80
2023/06/13 06:26:30;;;;;;;4.83;3.70;;;;;;;;;;4934709;29;20190;-79
2023/06/13 06:28:57;;;;;;;6.70;3.87;;;;;;;;;;4933820;29;20676;-78
2023/06/13 06:31:24;;;;;;;5.17;3.73;;;;;;;;;;4937242;29;20229;-76
2023/06/13 06:33:50;;;;;;;4.33;3.70;;;;;;;;;;4932047;29;20186;-79
2023/06/13 06:36:16;;;;;;;6.50;3.30;;;;;;;;;;4933786;29;20225;-78
2023/06/13 06:38:43;;;;;;;5.00;3.70;;;;;;;;;;4934582;28;20181;-78
2023/06/13 06:41:09;;;;;;;5.97;3.77;;;;;;;;;;4933564;29;20201;-78
2023/06/13 06:43:35;;;;;;;5.77;3.77;;;;;;;;;;4926986;29;20182;-78
2023/06/13 06:46:08;;;;;;;3.67;3.37;;;;;;;;;;4918239;29;20185;-78
2023/06/13 06:48:34;;;;;;;5.60;4.00;;;;;;;;;;4927720;29;20728;-76
2023/06/13 06:51:00;;;;;;;4.37;3.70;;;;;;;;;;4904023;29;20245;-76
2023/06/13 06:53:26;;;;;;;5.10;3.50;;;;;;;;;;4931494;29;20222;-76
2023/06/13 06:55:53;;;;;;;5.30;3.90;;;;;;;;;;4931812;29;20188;-76
2023/06/13 06:58:19;;;;;;;5.93;3.60;;;;;;;;;;4937757;29;20197;-77
2023/06/13 07:00:46;;;;;;;5.73;3.80;;;;;;;;;;4933837;28;20195;-77
2023/06/13 07:03:12;;;;;;;7.97;3.90;;;;;;;;;;4926078;29;20186;-77
2023/06/13 07:05:38;;;;;;;6.17;4.00;;;;;;;;;;4933693;29;20260;-76
2023/06/13 07:08:05;;;;;;;4.83;3.90;;;;;;;;;;4931704;29;20658;-76
2023/06/13 07:10:31;;;;;;;6.57;4.00;;;;;;;;;;4944456;29;20356;-76
2023/06/13 07:12:57;;;;;;;5.27;3.87;;;;;;;;;;4934433;29;20181;-76
2023/06/13 07:15:23;;;;;;;8.97;3.90;;;;;;;;;;4934277;29;20229;-76
2023/06/13 07:17:50;;;;;;;4.37;3.97;;;;;;;;;;4936954;29;20221;-76
2023/06/13 07:20:17;;;;;;;4.77;4.10;;;;;;;;;;4934594;29;20285;-76
2023/06/13 07:22:43;;;;;;;4.17;3.67;;;;;;;;;;4933938;29;20344;-76
2023/06/13 07:25:09;;;;;;;4.97;3.63;;;;;;;;;;4932912;29;20186;-76
2023/06/13 07:27:36;;;;;;;4.77;4.37;;;;;;;;;;4935357;29;20197;-76
2023/06/13 07:30:03;;;;;;;5.87;3.77;;;;;;;;;;4934783;29;20189;-76
2023/06/13 07:32:30;;;;;;;4.30;3.60;;;;;;;;;;4933771;29;20206;-76
2023/06/13 07:34:56;;;;;;;5.20;3.77;;;;;;;;;;4933630;29;20198;-76
2023/06/13 07:37:22;;;;;;;4.20;3.70;;;;;;;;;;4933137;29;20224;-76
2023/06/13 07:39:48;;;;;;;5.97;3.90;;;;;;;;;;4932516;29;20237;-76
2023/06/13 07:42:14;;;;;;;5.97;3.63;;;;;;;;;;4933116;29;20210;-76
2023/06/13 07:44:41;;;;;;;4.57;3.83;;;;;;;;;;4932599;29;20182;-76
2023/06/13 07:47:07;;;;;;;4.83;3.63;;;;;;;;;;4929369;29;20594;-76
2023/06/13 07:49:33;;;;;;;5.17;3.77;;;;;;;;;;4934244;29;20181;-76
2023/06/13 07:52:00;;;;;;;5.47;3.67;;;;;;;;;;4931477;29;20210;-76
2023/06/13 07:54:27;;;;;;;5.57;3.73;;;;;;;;;;4930930;29;20620;-76
2023/06/13 07:56:53;;;;;;;4.10;3.60;;;;;;;;;;4926439;29;21155;-76
2023/06/13 07:59:19;;;;;;;6.00;4.30;;;;;;;;;;4931723;29;20186;-76
2023/06/13 08:01:45;;;;;;;4.30;3.90;;;;;;;;;;4935251;29;20220;-76
2023/06/13 08:04:11;;;;;;;6.07;4.23;;;;;;;;;;4932227;29;20268;-76
2023/06/13 08:06:39;;;;;;;5.10;3.73;;;;;;;;;;4933114;29;20614;-76
2023/06/13 08:09:08;;;;;;;4.00;3.60;;;;;;;;;;4934423;29;20272;-76
2023/06/13 08:11:35;;;;;;;4.70;4.20;;;;;;;;;;4928220;29;20214;-76
2023/06/13 08:14:02;;;;;;;5.17;3.60;;;;;;;;;;4934148;29;20178;-76
2023/06/13 08:16:28;;;;;;;5.30;3.53;;;;;;;;;;4932955;29;20247;-76
2023/06/13 08:18:54;;;;;;;5.57;3.57;;;;;;;;;;4931459;29;20221;-75
2023/06/13 08:21:21;;;;;;;7.50;3.90;;;;;;;;;;4926924;29;20202;-76
2023/06/13 08:23:47;;;;;;;4.97;3.83;;;;;;;;;;4915055;29;20233;-76
2023/06/13 08:26:13;;;;;;;5.50;3.60;;;;;;;;;;4923404;29;20699;-76
2023/06/13 08:28:42;;;;;;;4.60;3.30;;;;;;;;;;4935053;29;20186;-76
2023/06/13 08:31:09;;;;;;;4.27;3.83;;;;;;;;;;4928267;29;20217;-76
2023/06/13 08:33:36;;;;;;;4.90;3.53;;;;;;;;;;4939949;29;20204;-75
2023/06/13 08:36:02;;;;;;;4.33;3.93;;;;;;;;;;4928065;29;20182;-76
2023/06/13 08:38:29;;;;;;;6.47;3.93;;;;;;;;;;4925607;29;20217;-76
2023/06/13 08:40:55;;;;;;;5.20;3.93;;;;;;;;;;4933481;29;20297;-76
2023/06/13 08:43:21;;;;;;;7.30;3.50;;;;;;;;;;4928481;29;20191;-76
2023/06/13 08:45:47;;;;;;;4.13;3.40;;;;;;;;;;4926059;29;20170;-75
2023/06/13 08:48:14;;;;;;;4.57;3.77;;;;;;;;;;4932560;29;20188;-75
2023/06/13 08:50:40;;;;;;;8.27;3.60;;;;;;;;;;4915021;29;20181;-75
2023/06/13 08:53:07;;;;;;;4.30;3.40;;;;;;;;;;4921293;29;20562;-76
2023/06/13 08:55:37;;;;;;;4.20;3.80;;;;;;;;;;4932527;29;20196;-76
2023/06/13 08:58:04;;;;;;;3.77;3.43;;;;;;;;;;4933317;29;20214;-76
2023/06/13 09:00:35;;;;;;;3.80;3.40;;;;;;;;;;4932756;29;20186;-76
2023/06/13 09:03:03;;;;;;;4.70;3.47;;;;;;;;;;4944629;29;20224;-76
2023/06/13 09:05:30;;;;;;;5.20;3.90;;;;;;;;;;4935762;29;20277;-76
2023/06/13 09:07:58;;;;;;;3.90;3.40;;;;;;;;;;4929673;29;20625;-76
2023/06/13 09:10:25;;;;;;;4.50;3.80;;;;;;;;;;4932731;29;20194;-75
2023/06/13 09:12:52;;;;;;;4.20;3.80;;;;;;;;;;4925858;29;20216;-75
2023/06/13 09:15:19;;;;;;;3.83;3.47;;;;;;;;;;4920211;29;20187;-82
2023/06/13 09:17:46;;;;;;;3.90;3.60;;;;;;;;;;4928148;29;20214;-76
2023/06/13 09:20:12;;;;;;;4.17;3.53;;;;;;;;;;4932648;29;20186;-76
2023/06/13 09:22:38;;;;;;;5.80;3.87;;;;;;;;;;4930632;29;20634;-76
2023/06/13 09:25:05;;;;;;;7.20;4.27;;;;;;;;;;4927627;29;20551;-77
2023/06/13 09:27:31;;;;;;;4.40;4.00;;;;;;;;;;4932300;29;20634;-82
2023/06/13 09:30:01;;;;;;;5.03;3.67;;;;;;;;;;4922622;29;20200;-77
2023/06/13 09:32:27;;;;;;;6.37;3.97;;;;;;;;;;4932604;29;20221;-77
2023/06/13 09:34:53;;;;;;;5.87;4.00;;;;;;;;;;4930625;29;20186;-77
2023/06/13 09:37:20;;;;;;;5.67;3.90;;;;;;;;;;4932882;29;20305;-77
2023/06/13 09:39:47;;;;;;;4.60;3.80;;;;;;;;;;4934632;29;20185;-77
2023/06/13 09:42:13;;;;;;;4.30;3.70;;;;;;;;;;4922704;29;20839;-77
2023/06/13 09:44:39;;;;;;;3.80;3.47;;;;;;;;;;4934228;29;20189;-75
2023/06/13 09:47:06;;;;;;;4.07;3.67;;;;;;;;;;4927156;29;20244;-77
2023/06/13 09:49:32;;;;;;;4.60;4.20;;;;;;;;;;4934296;29;20243;-77
2023/06/13 09:52:02;;;;;;;5.13;3.73;;;;;;;;;;4934091;29;20201;-77
2023/06/13 09:54:31;;;;;;;4.73;3.87;;;;;;;;;;4932148;29;20186;-77
2023/06/13 09:56:58;;;;;;;4.37;3.70;;;;;;;;;;4930110;29;20217;-77
2023/06/13 09:59:24;;;;;;;4.20;3.80;;;;;;;;;;4932894;28;20244;-77
2023/06/13 10:01:50;;;;;;;4.40;4.00;;;;;;;;;;4934114;29;20233;-77
2023/06/13 10:04:16;;;;;;;7.30;4.40;;;;;;;;;;4933988;29;20192;-77
2023/06/13 10:06:43;;;;;;;4.70;3.93;;;;;;;;;;4917409;29;20240;-77
2023/06/13 10:09:12;;;;;;;4.73;4.27;;;;;;;;;;4931597;29;20212;-77
2023/06/13 10:11:40;;;;;;;4.43;3.93;;;;;;;;;;4930408;29;20219;-77
2023/06/13 10:14:10;;;;;;;4.30;3.90;;;;;;;;;;4931870;29;20846;-77
2023/06/13 10:16:43;;;;;;;4.63;4.23;;;;;;;;;;4932232;29;20237;-77
2023/06/13 10:19:12;;;;;;;5.97;4.23;;;;;;;;;;4932294;29;20192;-77
2023/06/13 10:21:38;;;;;;;5.97;4.00;;;;;;;;;;4932055;29;20554;-77
2023/06/13 10:24:05;;;;;;;5.03;4.13;;;;;;;;;;4934339;29;20192;-77
2023/06/13 10:26:35;;;;;;;4.00;3.70;;;;;;;;;;4932928;29;20182;-77
2023/06/13 10:29:07;;;;;;;6.67;4.00;;;;;;;;;;4933505;29;20210;-77
2023/06/13 10:31:52;;;;;;;4.03;3.63;;;;;;;;;;4933991;29;20220;-77
2023/06/13 10:34:18;;;;;;;5.47;3.90;;;;;;;;;;4933068;29;20190;-79
2023/06/13 10:37:08;;;;;;;4.77;3.70;;;;;;;;;;4924492;29;20581;-77
2023/06/13 10:39:41;;;;;;;4.40;3.77;;;;;;;;;;4934931;29;20182;-77
2023/06/13 10:42:19;;;;;;;4.57;3.80;;;;;;;;;;4934279;29;20274;-77
2023/06/13 10:44:59;;;;;;;4.07;3.67;;;;;;;;;;4915723;29;20185;-77
2023/06/13 10:47:28;;;;;;;5.53;3.83;;;;;;;;;;4930345;29;20195;-77
2023/06/13 10:49:54;;;;;;;5.07;4.07;;;;;;;;;;4933806;29;20192;-77
2023/06/13 10:52:20;;;;;;;4.90;3.60;;;;;;;;;;4932455;29;20662;-75
2023/06/13 10:54:53;;;;;;;5.50;4.13;;;;;;;;;;4934127;29;20207;-76
2023/06/13 10:57:20;;;;;;;5.47;3.80;;;;;;;;;;4937299;29;20244;-75
2023/06/13 10:59:47;;;;;;;6.20;3.97;;;;;;;;;;4935472;29;20296;-76
2023/06/13 11:02:15;;;;;;;4.10;3.70;;;;;;;;;;4941760;29;20259;-76
2023/06/13 11:04:45;;;;;;;4.30;3.90;;;;;;;;;;4932928;28;20185;-75
2023/06/13 11:07:24;;;;;;;4.57;3.70;;;;;;;;;;4932272;29;20549;-77
2023/06/13 11:10:10;;;;;;;6.10;3.77;;;;;;;;;;4932662;29;20852;-79
2023/06/13 11:12:37;;;;;;;4.93;4.20;;;;;;;;;;4931171;29;20780;-76
2023/06/13 11:15:04;;;;;;;6.77;4.13;;;;;;;;;;4933308;29;20277;-75
2023/06/13 11:17:30;;;;;;;6.60;4.37;;;;;;;;;;4931348;29;20218;-75
2023/06/13 11:19:57;;;;;;;5.50;3.97;;;;;;;;;;4933341;29;20182;-75
2023/06/13 11:22:23;;;;;;;3.90;3.60;;;;;;;;;;4931810;29;20209;-75
2023/06/13 11:24:50;;;;;;;7.43;4.10;;;;;;;;;;4932227;29;20273;-77
2023/06/13 11:27:16;;;;;;;5.17;3.97;;;;;;;;;;4933476;29;20249;-77
2023/06/13 11:29:43;;;;;;;4.37;3.97;;;;;;;;;;4933617;29;20192;-77
2023/06/13 11:32:10;;;;;;;4.60;4.07;;;;;;;;;;4932447;29;20226;-75
2023/06/13 11:34:39;;;;;;;5.50;4.03;;;;;;;;;;4928540;29;20294;-75
2023/06/13 11:37:10;;;;;;;5.50;3.80;;;;;;;;;;4931825;29;20225;-74
2023/06/13 11:39:41;;;;;;;4.20;3.80;;;;;;;;;;4932592;29;20737;-75
2023/06/13 11:42:08;;;;;;;5.37;4.00;;;;;;;;;;4931539;29;20357;-75
2023/06/13 11:44:37;;;;;;;5.23;4.37;;;;;;;;;;4932394;29;20209;-78
2023/06/13 11:47:04;;;;;;;5.20;4.03;;;;;;;;;;4929358;29;20225;-75
2023/06/13 11:49:30;;;;;;;4.63;3.97;;;;;;;;;;4930990;29;20270;-77
2023/06/13 11:51:56;;;;;;;4.23;3.83;;;;;;;;;;4936090;29;20241;-78
2023/06/13 11:54:30;;;;;;;4.63;3.77;;;;;;;;;;4933317;29;20913;-77
2023/06/13 11:56:56;;;;;;;4.60;4.00;;;;;;;;;;4932575;29;20217;-76
2023/06/13 11:59:23;;;;;;;4.00;3.57;;;;;;;;;;4932141;29;20209;-76
2023/06/13 12:01:52;;;;;;;4.40;3.83;;;;;;;;;;4931356;29;20265;-76
2023/06/13 12:04:22;;;;;;;5.40;4.03;;;;;;;;;;4932331;29;20181;-76
2023/06/13 12:06:48;;;;;;;3.90;3.50;;;;;;;;;;4932347;29;20634;-76
2023/06/13 12:09:15;;;;;;;5.90;4.13;;;;;;;;;;4931089;29;20326;-76
2023/06/13 12:11:41;;;;;;;4.40;3.77;;;;;;;;;;4932660;29;20216;-76
2023/06/13 12:14:07;;;;;;;4.83;3.63;;;;;;;;;;4932281;29;20225;-76
2023/06/13 12:16:35;;;;;;;4.40;3.80;;;;;;;;;;4930357;29;20267;-76
2023/06/13 12:19:01;;;;;;;4.20;3.80;;;;;;;;;;4932788;29;20195;-76
2023/06/13 12:21:32;;;;;;;5.13;4.03;;;;;;;;;;4931640;29;20204;-76
2023/06/13 12:24:03;;;;;;;4.00;3.60;;;;;;;;;;4928130;29;21155;-76
2023/06/13 12:26:40;;;;;;;5.17;3.80;;;;;;;;;;4929603;29;20692;-76
2023/06/13 12:29:07;;;;;;;4.40;3.83;;;;;;;;;;4927385;29;20189;-76
2023/06/13 12:31:36;;;;;;;4.00;3.60;;;;;;;;;;4931030;29;20570;-76
2023/06/13 12:34:05;;;;;;;4.40;3.70;;;;;;;;;;4933157;29;20664;-77
2023/06/13 12:36:37;;;;;;;4.53;3.60;;;;;;;;;;4934469;29;20201;-76
2023/06/13 12:39:05;;;;;;;4.63;3.80;;;;;;;;;;4932131;29;20186;-76
2023/06/13 12:41:31;;;;;;;4.00;3.60;;;;;;;;;;4931913;29;20206;-77
2023/06/13 12:43:59;;;;;;;3.60;3.30;;;;;;;;;;4931687;29;20244;-78
2023/06/13 12:46:25;;;;;;;5.50;3.50;;;;;;;;;;4931229;29;20243;-78
2023/06/13 12:48:51;;;;;;;4.03;3.60;;;;;;;;;;4933672;29;20214;-81
2023/06/13 12:51:30;;;;;;;5.73;3.80;;;;;;;;;;4933726;29;20608;-79
2023/06/13 12:54:08;;;;;;;3.93;3.33;;;;;;;;;;4931241;29;20217;-80
2023/06/13 12:56:34;;;;;;;3.73;3.40;;;;;;;;;;4930675;29;20353;-80
2023/06/13 12:59:01;;;;;;;4.60;3.60;;;;;;;;;;4932770;29;20578;-81
2023/06/13 13:01:27;;;;;;;4.57;3.80;;;;;;;;;;4931919;29;20210;-80
2023/06/13 13:03:53;;;;;;;3.80;3.50;;;;;;;;;;4930096;29;20599;-80
2023/06/13 13:06:19;;;;;;;4.33;3.33;;;;;;;;;;4933435;29;20712;-80
2023/06/13 13:08:45;;;;;;;5.27;3.50;;;;;;;;;;4933009;29;20285;-87
2023/06/13 13:11:11;;;;;;;4.20;2.90;;;;;;;;;;4933520;29;20291;-80
2023/06/13 13:13:37;;;;;;;5.60;3.20;;;;;;;;;;4934325;29;20190;-80
2023/06/13 13:16:04;;;;;;;4.30;3.17;;;;;;;;;;4936792;29;20209;-80
2023/06/13 13:18:30;;;;;;;5.33;3.10;;;;;;;;;;4934448;29;20174;-80
2023/06/13 13:20:56;;;;;;;3.40;3.10;;;;;;;;;;4936021;29;20743;-80
2023/06/13 13:23:22;;;;;;;5.17;3.30;;;;;;;;;;4934877;29;20942;-81
2023/06/13 13:25:49;;;;;;;4.33;3.27;;;;;;;;;;4934156;29;20194;-81
2023/06/13 13:28:15;;;;;;;7.13;3.10;;;;;;;;;;4936263;29;20939;-81
2023/06/13 13:30:41;;;;;;;5.03;3.10;;;;;;;;;;4935986;29;20881;-81
2023/06/13 13:33:07;;;;;;;3.87;3.30;;;;;;;;;;4935806;29;20269;-81
2023/06/13 13:35:34;;;;;;;4.73;3.80;;;;;;;;;;4934069;29;20194;-81
2023/06/13 13:38:00;;;;;;;4.00;3.07;;;;;;;;;;4935259;29;20307;-81
2023/06/13 13:40:26;;;;;;;3.93;3.17;;;;;;;;;;4935805;29;20608;-82
2023/06/13 13:42:53;;;;;;;4.37;3.37;;;;;;;;;;4937364;29;20195;-82
2023/06/13 13:45:19;;;;;;;6.80;3.53;;;;;;;;;;4932537;29;20286;-81
2023/06/13 13:47:45;;;;;;;3.57;3.27;;;;;;;;;;4937693;29;20210;-81
2023/06/13 13:50:11;;;;;;;4.20;3.13;;;;;;;;;;4936219;29;20193;-81
2023/06/13 13:52:38;;;;;;;7.30;3.57;;;;;;;;;;4935213;29;20776;-81
2023/06/13 13:55:05;;;;;;;4.20;3.30;;;;;;;;;;4930879;29;20259;-81
2023/06/13 13:57:31;;;;;;;3.93;3.40;;;;;;;;;;4931625;29;20301;-81
2023/06/13 13:59:59;;;;;;;6.03;3.23;;;;;;;;;;4935759;29;20194;-81
2023/06/13 14:02:25;;;;;;;5.97;3.33;;;;;;;;;;4934855;29;20812;-81
2023/06/13 14:04:51;;;;;;;3.97;3.50;;;;;;;;;;4933820;29;20195;-81
2023/06/13 14:07:17;;;;;;;3.63;3.20;;;;;;;;;;4928391;29;20624;-81
2023/06/13 14:09:44;;;;;;;4.20;3.40;;;;;;;;;;4931232;29;20282;-81
2023/06/13 14:12:11;;;;;;;4.83;3.10;;;;;;;;;;4936841;29;20237;-81
2023/06/13 14:14:37;;;;;;;7.93;3.10;;;;;;;;;;4937122;29;20196;-81
2023/06/13 14:17:04;;;;;;;6.00;3.20;;;;;;;;;;4938630;29;20269;-81
2023/06/13 14:19:30;;;;;;;4.85;3.00;;;;;;;;;;4933739;29;20251;-82
2023/06/13 14:21:56;;;;;;;3.53;3.22;;;;;;;;;;4927526;29;20229;-81
2023/06/13 14:24:22;;;;;;;3.40;3.10;;;;;;;;;;4933653;29;20195;-82
2023/06/13 14:26:49;;;;;;;4.43;3.30;;;;;;;;;;4936838;29;20189;-82
2023/06/13 14:29:16;;;;;;;3.38;3.08;;;;;;;;;;4929949;29;20756;-82
2023/06/13 14:31:42;;;;;;;4.38;3.00;;;;;;;;;;4931430;29;20219;-82
2023/06/13 14:34:08;;;;;;;5.20;3.05;;;;;;;;;;4930354;29;20279;-82
2023/06/13 14:36:34;;;;;;;3.47;3.10;;;;;;;;;;4931485;29;20211;-82
2023/06/13 14:39:05;;;;;;;5.15;3.00;;;;;;;;;;4930612;29;20192;-82
2023/06/13 14:41:31;;;;;;;4.60;3.28;;;;;;;;;;4930222;29;20275;-82
2023/06/13 14:43:57;;;;;;;3.70;3.15;;;;;;;;;;4914620;29;20189;-82
2023/06/13 14:46:23;;;;;;;3.33;3.03;;;;;;;;;;4930549;29;20228;-81